Rechercher aéroport 
image banner adimage banner adimage banner ad
image banner ad

6CA6 - Eagle Ridge Ranch

Situé à Railroad Flat, United States

ICAO - 6CA6, IATA -

Données fournies par Airmate  

Information générale

Coordonnées: N38°19'28" W120°28'42"
Élévation : 2870 feet MSL.
Variation magnétique : 16° East
Voir autres Aéroports à California

Données opérationnelles

Special qualification required
Heure actuelle UTC:
Heure actuelle locale:
METAR: KCPU 231415Z AUTO 20004KT 10SM CLR 17/05 A2996 RMK AO2 T01650049
Voir NOTAMs / SUP AIP / TFR affectant cet aéroport [VIEW]
Fréquences de communication: [VIEW]

Pistes:

Identifiant RWYQFULongueur (ft)Largeur (ft)SurfaceLDA (ft)
08400033OTHER
26400033OTHER

Coordonnées de l'aéroport

Adresse: Railroad Flat United States

Vue satellite de 6CA6